createdAt,value
2022-11-20T00:02:26.387Z,44.95
2022-11-20T00:04:52.760Z,43.17
2022-11-20T00:07:19.130Z,42.47
2022-11-20T00:09:45.504Z,39.28
2022-11-20T00:12:11.796Z,41.47
2022-11-20T00:14:38.152Z,39.00
2022-11-20T00:17:04.636Z,44.92
2022-11-20T00:19:30.966Z,44.35
2022-11-20T00:21:57.235Z,43.60
2022-11-20T00:24:23.597Z,39.50
2022-11-20T00:26:50.015Z,42.72
2022-11-20T00:29:16.634Z,40.30
2022-11-20T00:31:42.974Z,43.60
2022-11-20T00:34:10.083Z,40.58
2022-11-20T00:36:36.450Z,40.75
2022-11-20T00:39:02.892Z,42.40
2022-11-20T00:41:30.160Z,38.30
2022-11-20T00:43:56.726Z,41.40
2022-11-20T00:46:23.992Z,44.13
2022-11-20T00:48:50.721Z,40.55
2022-11-20T00:51:18.518Z,43.53
2022-11-20T00:53:45.010Z,38.95
2022-11-20T00:56:13.127Z,43.92
2022-11-20T00:58:40.961Z,46.25
2022-11-20T01:01:10.481Z,46.08
2022-11-20T01:03:39.069Z,47.55
2022-11-20T01:06:07.036Z,47.03
2022-11-20T01:08:34.212Z,48.72
2022-11-20T01:11:02.519Z,49.45
2022-11-20T01:13:38.413Z,47.03
2022-11-20T01:16:04.756Z,48.10
2022-11-20T01:18:31.121Z,52.50
2022-11-20T01:21:01.093Z,45.83
2022-11-20T01:23:27.383Z,49.28
2022-11-20T01:25:53.708Z,52.38
2022-11-20T01:28:20.008Z,49.30
2022-11-20T01:30:46.373Z,52.20
2022-11-20T01:33:12.696Z,53.35
2022-11-20T01:35:39.046Z,52.38
2022-11-20T01:38:05.343Z,49.97
2022-11-20T01:40:31.647Z,52.65
2022-11-20T01:43:22.247Z,52.50
2022-11-20T01:45:51.534Z,53.72
2022-11-20T01:48:18.989Z,57.35
2022-11-20T01:50:45.366Z,53.88
2022-11-20T01:53:13.874Z,55.88
2022-11-20T01:55:42.431Z,55.15
2022-11-20T01:58:09.379Z,53.80
2022-11-20T02:00:35.965Z,52.90
2022-11-20T02:03:04.668Z,54.70
2022-11-20T02:05:40.010Z,53.47
2022-11-20T02:08:06.694Z,54.03
2022-11-20T02:10:33.231Z,55.05
2022-11-20T02:13:18.539Z,56.80
2022-11-20T02:15:45.171Z,52.75
2022-11-20T02:18:12.707Z,52.47
2022-11-20T02:20:39.704Z,53.22
2022-11-20T02:23:09.606Z,53.30
2022-11-20T02:25:36.460Z,51.63
2022-11-20T02:28:02.919Z,54.08
2022-11-20T02:30:29.269Z,54.22
2022-11-20T02:32:55.612Z,58.83
2022-11-20T02:35:21.875Z,53.58
2022-11-20T02:37:49.337Z,51.70
2022-11-20T02:40:15.644Z,51.25
2022-11-20T02:42:42.084Z,56.70
2022-11-20T02:45:08.651Z,57.72
2022-11-20T02:47:34.980Z,58.45
2022-11-20T02:50:01.344Z,58.45
2022-11-20T02:52:27.654Z,60.00
2022-11-20T02:54:54.039Z,59.15
2022-11-20T02:57:20.383Z,58.53
2022-11-20T02:59:46.700Z,54.65
2022-11-20T03:02:13.020Z,66.13
2022-11-20T03:04:39.308Z,59.60
2022-11-20T03:07:05.747Z,58.95
2022-11-20T03:09:32.212Z,61.75
2022-11-20T03:11:58.508Z,61.47
2022-11-20T03:14:24.848Z,62.58
2022-11-20T03:16:51.184Z,61.72
2022-11-20T03:19:17.632Z,60.47
2022-11-20T03:21:44.016Z,58.30
2022-11-20T03:24:10.379Z,62.38
2022-11-20T03:26:36.746Z,60.42
2022-11-20T03:29:04.512Z,59.35
2022-11-20T03:31:32.215Z,62.92
2022-11-20T03:33:58.970Z,58.60
2022-11-20T03:36:25.952Z,58.15
2022-11-20T03:38:53.700Z,60.70
2022-11-20T03:41:24.672Z,61.25
2022-11-20T03:43:58.171Z,59.63
2022-11-20T03:46:24.585Z,59.78
2022-11-20T03:48:52.198Z,59.38
2022-11-20T03:51:19.959Z,61.22
2022-11-20T03:53:47.281Z,62.03
2022-11-20T03:56:14.654Z,68.20
2022-11-20T03:58:41.370Z,67.65
2022-11-20T04:01:12.430Z,69.97
2022-11-20T04:03:39.423Z,63.40
2022-11-20T04:06:06.287Z,67.00
2022-11-20T04:08:32.931Z,67.03
2022-11-20T04:11:09.144Z,71.68
2022-11-20T04:13:35.597Z,66.10
2022-11-20T04:16:01.883Z,68.65
2022-11-20T04:18:28.179Z,69.45
2022-11-20T04:20:54.505Z,67.68
2022-11-20T04:23:23.378Z,66.80
2022-11-20T04:25:54.265Z,68.55
2022-11-20T04:28:21.020Z,70.80
2022-11-20T04:30:47.490Z,74.13
2022-11-20T04:33:13.775Z,74.55
2022-11-20T04:35:40.096Z,74.03
2022-11-20T04:38:06.576Z,76.63
2022-11-20T04:40:32.928Z,77.07
2022-11-20T04:42:59.333Z,68.85
2022-11-20T04:45:25.647Z,78.45
2022-11-20T04:47:51.988Z,76.68
2022-11-20T04:50:18.321Z,76.25
2022-11-20T04:52:44.684Z,69.95
2022-11-20T04:55:11.010Z,76.55
2022-11-20T04:57:37.343Z,79.53
2022-11-20T05:00:04.173Z,84.22
2022-11-20T05:02:31.783Z,77.78
2022-11-20T05:04:58.123Z,83.55
2022-11-20T05:07:24.515Z,76.32
2022-11-20T05:09:50.866Z,84.60
2022-11-20T05:12:17.192Z,84.97
2022-11-20T05:14:43.494Z,79.80
2022-11-20T05:17:13.316Z,90.53
2022-11-20T05:19:39.660Z,92.93
2022-11-20T05:22:06.255Z,86.38
2022-11-20T05:24:32.593Z,87.97
2022-11-20T05:26:58.990Z,90.75
2022-11-20T05:29:25.332Z,90.38
2022-11-20T05:31:51.724Z,81.55
2022-11-20T05:34:18.121Z,91.95
2022-11-20T05:36:44.409Z,90.93
2022-11-20T05:39:10.771Z,94.45
2022-11-20T05:41:37.120Z,99.55
2022-11-20T05:44:03.561Z,90.50
2022-11-20T05:46:30.008Z,92.03
2022-11-20T05:48:57.356Z,91.30
2022-11-20T05:51:24.310Z,95.32
2022-11-20T05:53:50.710Z,83.93
2022-11-20T05:56:18.489Z,84.78
2022-11-20T05:58:45.199Z,77.85
2022-11-20T06:01:16.049Z,83.45
2022-11-20T06:03:50.316Z,72.13
2022-11-20T06:06:17.258Z,76.57
2022-11-20T06:08:44.145Z,77.82
2022-11-20T06:11:11.253Z,76.80
2022-11-20T06:13:41.803Z,75.68
2022-11-20T06:16:08.795Z,82.32
2022-11-20T06:18:35.242Z,81.78
2022-11-20T06:21:02.509Z,79.47
2022-11-20T06:23:29.799Z,72.10
2022-11-20T06:25:56.124Z,74.53
2022-11-20T06:28:22.986Z,76.15
2022-11-20T06:30:49.306Z,81.38
2022-11-20T06:33:15.656Z,86.55
2022-11-20T06:35:42.017Z,75.72
2022-11-20T06:38:08.344Z,109.47
2022-11-20T06:40:34.756Z,91.78
2022-11-20T06:43:01.092Z,84.43
2022-11-20T06:45:27.693Z,78.38
2022-11-20T06:47:54.000Z,92.13
2022-11-20T06:50:20.339Z,82.15
2022-11-20T06:52:46.599Z,80.68
2022-11-20T06:55:12.847Z,81.70
2022-11-20T06:57:39.134Z,77.50
2022-11-20T07:00:05.711Z,79.63
2022-11-20T07:02:32.096Z,73.00
2022-11-20T07:04:58.389Z,75.90
2022-11-20T07:07:24.765Z,72.60
2022-11-20T07:09:51.212Z,74.28
2022-11-20T07:12:17.554Z,64.22
2022-11-20T07:14:43.879Z,56.40
2022-11-20T07:17:10.283Z,56.50
2022-11-20T07:19:36.575Z,60.03
2022-11-20T07:22:02.954Z,64.50
2022-11-20T07:24:29.296Z,65.20
2022-11-20T07:26:55.581Z,57.20
2022-11-20T07:29:22.024Z,65.60
2022-11-20T07:31:48.418Z,76.20
2022-11-20T07:34:14.766Z,191.23
2022-11-20T07:36:41.085Z,59.58
2022-11-20T07:39:07.444Z,68.38
2022-11-20T07:41:33.901Z,52.53
2022-11-20T07:44:00.226Z,57.42
2022-11-20T07:46:26.647Z,54.25
2022-11-20T07:48:53.252Z,56.03
2022-11-20T07:51:19.930Z,56.65
2022-11-20T07:53:46.215Z,49.78
2022-11-20T07:56:12.585Z,49.35
2022-11-20T07:58:38.900Z,52.03
2022-11-20T08:01:08.709Z,51.20
2022-11-20T08:03:35.592Z,55.10
2022-11-20T08:06:02.271Z,49.03
2022-11-20T08:08:31.321Z,53.70
2022-11-20T08:11:20.074Z,47.08
2022-11-20T08:14:05.116Z,48.00
2022-11-20T08:16:31.499Z,62.33
2022-11-20T08:18:58.021Z,56.45
2022-11-20T08:21:24.849Z,57.92
2022-11-20T08:23:51.332Z,56.35
2022-11-20T08:26:17.645Z,55.60
2022-11-20T08:28:44.895Z,58.67
2022-11-20T08:31:11.241Z,55.53
2022-11-20T08:33:37.608Z,56.28
2022-11-20T08:36:04.290Z,55.88
2022-11-20T08:38:31.100Z,53.67
2022-11-20T08:41:19.976Z,51.67
2022-11-20T08:43:46.319Z,48.47
2022-11-20T08:46:12.655Z,42.05
2022-11-20T08:48:38.993Z,39.50
2022-11-20T08:51:05.571Z,38.40
2022-11-20T08:53:32.157Z,38.40
2022-11-20T08:55:59.168Z,37.55
2022-11-20T08:58:26.065Z,37.20
2022-11-20T09:00:52.589Z,37.38
2022-11-20T09:03:18.911Z,34.92
2022-11-20T09:05:45.334Z,33.78
2022-11-20T09:08:11.703Z,35.00
2022-11-20T09:10:40.560Z,35.35
2022-11-20T09:13:06.943Z,31.38
2022-11-20T09:15:33.723Z,31.10
2022-11-20T09:18:01.216Z,32.78
2022-11-20T09:20:29.500Z,30.60
2022-11-20T09:22:56.128Z,28.13
2022-11-20T09:25:22.465Z,25.02
2022-11-20T09:27:48.791Z,25.35
2022-11-20T09:30:15.767Z,27.58
2022-11-20T09:32:42.552Z,22.45
2022-11-20T09:35:09.339Z,21.23
2022-11-20T09:37:35.829Z,21.58
2022-11-20T09:40:02.180Z,18.95
2022-11-20T09:42:40.999Z,19.50
2022-11-20T09:45:25.595Z,18.88
2022-11-20T09:48:10.952Z,20.40
2022-11-20T09:50:39.248Z,21.50
2022-11-20T09:53:12.034Z,20.63
2022-11-20T09:55:38.629Z,20.45
2022-11-20T09:58:13.834Z,21.00
2022-11-20T10:00:40.348Z,24.35
2022-11-20T10:03:12.763Z,23.60
2022-11-20T10:05:46.886Z,23.88
2022-11-20T10:08:16.940Z,25.55
2022-11-20T10:10:49.455Z,25.05
2022-11-20T10:13:30.891Z,19.55
2022-11-20T10:16:06.395Z,23.65
2022-11-20T10:18:43.263Z,22.20
2022-11-20T10:21:12.635Z,21.73
2022-11-20T10:23:45.251Z,21.60
2022-11-20T10:26:22.549Z,21.92
2022-11-20T10:28:59.224Z,23.88
2022-11-20T10:31:31.580Z,21.83
2022-11-20T10:34:12.007Z,22.40
2022-11-20T10:36:47.870Z,21.25
2022-11-20T10:39:14.184Z,22.10
2022-11-20T10:41:41.896Z,20.67
2022-11-20T10:44:46.292Z,21.58
2022-11-20T10:47:14.473Z,23.20
2022-11-20T10:49:41.911Z,23.83
2022-11-20T10:52:20.492Z,21.92
2022-11-20T10:55:02.519Z,21.83
2022-11-20T10:57:49.158Z,25.65
2022-11-20T11:00:17.863Z,26.00
2022-11-20T11:02:47.024Z,20.88
2022-11-20T11:05:25.550Z,22.17
2022-11-20T11:07:54.080Z,22.58
2022-11-20T11:10:20.390Z,20.38
2022-11-20T11:12:49.095Z,21.55
2022-11-20T11:15:25.065Z,20.02
2022-11-20T11:17:51.368Z,21.17
2022-11-20T11:20:25.090Z,22.92
2022-11-20T11:22:56.101Z,19.67
2022-11-20T11:25:31.628Z,21.50
2022-11-20T11:27:59.482Z,20.85
2022-11-20T11:30:26.749Z,18.48
2022-11-20T11:33:03.488Z,20.42
2022-11-20T11:35:29.831Z,19.02
2022-11-20T11:38:03.333Z,20.02
2022-11-20T11:40:31.850Z,19.10
2022-11-20T11:42:59.740Z,20.45
2022-11-20T11:45:26.507Z,18.25
2022-11-20T11:47:54.144Z,17.60
2022-11-20T11:50:21.915Z,16.45
2022-11-20T11:53:07.096Z,16.90
2022-11-20T11:55:39.573Z,16.73
2022-11-20T11:58:24.796Z,16.10
2022-11-20T12:01:17.430Z,15.30
2022-11-20T12:03:45.494Z,14.00
2022-11-20T12:06:15.749Z,12.70
2022-11-20T12:08:56.810Z,13.63
2022-11-20T12:11:38.298Z,15.68
2022-11-20T12:14:28.023Z,17.20
2022-11-20T12:16:56.483Z,18.48
2022-11-20T12:19:22.993Z,19.73
2022-11-20T12:22:05.324Z,19.42
2022-11-20T12:24:37.801Z,17.05
2022-11-20T12:27:04.431Z,18.60
2022-11-20T12:29:30.699Z,18.60
2022-11-20T12:32:02.864Z,19.85
2022-11-20T12:34:48.440Z,20.33
2022-11-20T12:37:23.908Z,22.25
2022-11-20T12:39:51.574Z,19.90
2022-11-20T12:42:42.441Z,22.40
2022-11-20T12:45:11.873Z,22.25
2022-11-20T12:47:44.484Z,21.65
2022-11-20T12:50:30.625Z,23.90
2022-11-20T12:53:03.758Z,23.83
2022-11-20T12:55:36.097Z,27.17
2022-11-20T12:58:22.484Z,24.17
2022-11-20T13:00:55.423Z,23.90
2022-11-20T13:03:37.787Z,25.53
2022-11-20T13:06:07.328Z,26.17
2022-11-20T13:08:34.890Z,24.27
2022-11-20T13:11:19.618Z,25.55
2022-11-20T13:13:46.148Z,26.85
2022-11-20T13:16:35.956Z,27.85
2022-11-20T13:19:04.112Z,33.08
2022-11-20T13:21:40.996Z,33.65
2022-11-20T13:24:19.460Z,39.75
2022-11-20T13:26:45.963Z,41.47
2022-11-20T13:29:16.813Z,44.85
2022-11-20T13:31:45.311Z,38.30
2022-11-20T13:34:24.828Z,37.80
2022-11-20T13:36:52.217Z,37.65
2022-11-20T13:39:25.733Z,38.03
2022-11-20T13:41:56.417Z,40.80
2022-11-20T13:44:25.999Z,43.13
2022-11-20T13:46:52.509Z,44.33
2022-11-20T13:49:22.191Z,38.47
2022-11-20T13:51:51.347Z,54.45
2022-11-20T13:54:40.848Z,58.25
2022-11-20T13:57:25.998Z,64.35
2022-11-20T13:59:55.393Z,68.88
2022-11-20T14:02:22.814Z,71.20
2022-11-20T14:04:50.296Z,76.15
2022-11-20T14:07:17.814Z,81.18
2022-11-20T14:09:54.593Z,83.53
2022-11-20T14:12:22.705Z,79.55
2022-11-20T14:14:53.629Z,83.35
2022-11-20T14:17:21.429Z,83.38
2022-11-20T14:19:48.463Z,78.20
2022-11-20T14:22:14.765Z,82.40
2022-11-20T14:24:41.075Z,77.00
2022-11-20T14:27:20.857Z,80.50
2022-11-20T14:29:48.357Z,80.78
2022-11-20T14:32:19.094Z,79.25
2022-11-20T14:34:46.630Z,83.75
2022-11-20T14:37:17.101Z,82.68
2022-11-20T14:39:48.702Z,75.53
2022-11-20T14:42:22.764Z,81.78
2022-11-20T14:44:49.926Z,87.10
2022-11-20T14:47:19.480Z,85.22
2022-11-20T14:49:46.597Z,80.32
2022-11-20T14:52:17.483Z,81.80
2022-11-20T14:54:54.340Z,81.13
2022-11-20T14:57:28.512Z,80.57
2022-11-20T15:00:08.716Z,87.72
2022-11-20T15:02:35.526Z,85.35
2022-11-20T15:05:04.146Z,89.55
2022-11-20T15:07:35.247Z,79.47
2022-11-20T15:10:08.807Z,92.50
2022-11-20T15:12:36.877Z,91.07
2022-11-20T15:15:04.262Z,89.93
2022-11-20T15:17:31.299Z,93.25
2022-11-20T15:19:57.652Z,84.63
2022-11-20T15:22:24.003Z,88.35
2022-11-20T15:24:50.338Z,96.72
2022-11-20T15:27:17.717Z,95.28
2022-11-20T15:29:44.066Z,97.03
2022-11-20T15:32:13.370Z,110.20
2022-11-20T15:34:40.178Z,107.97
2022-11-20T15:37:06.559Z,109.90
2022-11-20T15:39:33.015Z,113.82
2022-11-20T15:41:59.395Z,127.15
2022-11-20T15:44:25.984Z,97.75
2022-11-20T15:46:52.429Z,105.05
2022-11-20T15:49:19.759Z,123.68
2022-11-20T15:51:47.959Z,137.63
2022-11-20T15:54:15.562Z,94.05
2022-11-20T15:56:41.954Z,94.78
2022-11-20T15:59:08.381Z,98.43
2022-11-20T16:01:35.039Z,93.25
2022-11-20T16:04:02.157Z,140.27
2022-11-20T16:06:28.455Z,94.38
2022-11-20T16:08:54.771Z,90.55
2022-11-20T16:11:21.112Z,89.13
2022-11-20T16:14:06.231Z,94.38
2022-11-20T16:16:36.280Z,129.10
2022-11-20T16:19:02.664Z,102.95
2022-11-20T16:21:31.963Z,105.57
2022-11-20T16:24:02.196Z,115.10
2022-11-20T16:26:28.928Z,115.43
2022-11-20T16:28:55.804Z,96.40
2022-11-20T16:31:22.603Z,124.57
2022-11-20T16:33:52.760Z,98.35
2022-11-20T16:36:19.697Z,91.30
2022-11-20T16:38:46.130Z,91.78
2022-11-20T16:41:15.573Z,88.13
2022-11-20T16:43:44.977Z,88.82
2022-11-20T16:46:11.307Z,84.95
2022-11-20T16:48:37.623Z,86.28
2022-11-20T16:51:04.085Z,89.82
2022-11-20T16:53:33.528Z,94.45
2022-11-20T16:56:08.815Z,101.13
2022-11-20T16:58:35.172Z,92.07
2022-11-20T17:01:11.773Z,93.13
2022-11-20T17:03:38.837Z,87.97
2022-11-20T17:06:15.867Z,86.70
2022-11-20T17:08:42.773Z,90.03
2022-11-20T17:11:09.798Z,88.85
2022-11-20T17:13:39.854Z,76.55
2022-11-20T17:16:11.214Z,77.68
2022-11-20T17:18:37.569Z,81.50
2022-11-20T17:21:05.335Z,81.25
2022-11-20T17:23:32.415Z,83.50
2022-11-20T17:26:06.340Z,84.15
2022-11-20T17:31:02.757Z,87.28
2022-11-20T17:33:29.567Z,92.07
2022-11-20T17:35:56.099Z,92.13
2022-11-20T17:38:22.796Z,77.70
2022-11-20T17:40:49.153Z,78.28
2022-11-20T17:43:15.540Z,85.80
2022-11-20T17:45:42.636Z,82.72
2022-11-20T17:48:08.935Z,80.65
2022-11-20T17:50:35.319Z,83.05
2022-11-20T17:53:01.695Z,82.40
2022-11-20T17:55:52.747Z,77.03
2022-11-20T17:58:21.760Z,69.00
2022-11-20T18:00:48.117Z,59.05
2022-11-20T18:03:14.448Z,55.28
2022-11-20T18:05:40.815Z,54.88
2022-11-20T18:08:07.131Z,48.45
2022-11-20T18:10:35.049Z,54.03
2022-11-20T18:13:01.438Z,50.70
2022-11-20T18:15:27.759Z,48.45
2022-11-20T18:17:54.135Z,46.58
2022-11-20T18:20:29.753Z,48.30
2022-11-20T18:22:57.640Z,45.55
2022-11-20T18:25:23.987Z,49.33
2022-11-20T18:27:50.282Z,46.90
2022-11-20T18:30:16.633Z,48.05
2022-11-20T18:32:43.297Z,51.50
2022-11-20T18:35:09.818Z,47.22
2022-11-20T18:37:36.150Z,54.65
2022-11-20T18:40:02.486Z,53.85
2022-11-20T18:42:47.596Z,53.60
2022-11-20T18:45:13.934Z,32.65
2022-11-20T18:47:40.313Z,40.03
2022-11-20T18:50:07.893Z,34.60
2022-11-20T18:52:38.238Z,26.13
2022-11-20T18:55:05.330Z,31.40
2022-11-20T18:57:31.989Z,28.73
2022-11-20T19:02:48.363Z,25.13
2022-11-20T19:05:14.926Z,21.25
2022-11-20T19:07:41.541Z,22.77
2022-11-20T19:10:08.379Z,20.48
2022-11-20T19:12:34.863Z,21.25
2022-11-20T19:15:01.184Z,16.65
2022-11-20T19:17:27.553Z,13.55
2022-11-20T19:19:54.939Z,11.88
2022-11-20T19:22:21.709Z,7.13
2022-11-20T19:24:48.370Z,13.35
2022-11-20T19:27:14.765Z,9.73
2022-11-20T19:29:41.131Z,8.55
2022-11-20T19:32:07.490Z,8.38
2022-11-20T19:34:35.296Z,8.35
2022-11-20T19:37:02.090Z,9.25
2022-11-20T19:39:28.520Z,7.07
2022-11-20T19:41:54.869Z,8.93
2022-11-20T19:44:21.300Z,6.68
2022-11-20T19:46:47.714Z,7.65
2022-11-20T19:49:14.441Z,5.63
2022-11-20T19:51:44.571Z,4.65
2022-11-20T19:54:10.914Z,5.05
2022-11-20T19:56:37.313Z,5.38
2022-11-20T19:59:03.744Z,3.60
2022-11-20T20:01:30.953Z,4.53
2022-11-20T20:04:01.279Z,3.67
2022-11-20T20:06:28.046Z,3.05
2022-11-20T20:09:05.102Z,3.78
2022-11-20T20:11:32.764Z,4.88
2022-11-20T20:14:03.284Z,2.53
2022-11-20T20:16:29.792Z,4.10
2022-11-20T20:18:57.152Z,2.83
2022-11-20T20:21:23.818Z,3.50
2022-11-20T20:23:51.078Z,2.85
2022-11-20T20:26:17.459Z,2.30
2022-11-20T20:28:43.818Z,2.50
2022-11-20T20:31:11.079Z,3.40
2022-11-20T20:33:38.228Z,2.65
2022-11-20T20:36:08.756Z,3.53
2022-11-20T20:38:35.388Z,2.65
2022-11-20T20:41:01.794Z,3.83
2022-11-20T20:43:28.240Z,3.00
2022-11-20T20:45:55.030Z,3.78
2022-11-20T20:48:22.686Z,3.35
2022-11-20T20:50:59.472Z,4.03
2022-11-20T20:53:26.018Z,4.97
2022-11-20T20:55:59.444Z,4.88
2022-11-20T20:58:26.291Z,4.45
2022-11-20T21:00:52.973Z,5.07
2022-11-20T21:03:19.477Z,3.80
2022-11-20T21:05:45.896Z,4.05
2022-11-20T21:08:21.183Z,3.97
2022-11-20T21:11:04.400Z,4.35
2022-11-20T21:13:30.881Z,4.07
2022-11-20T21:15:57.290Z,5.30
2022-11-20T21:18:23.999Z,5.18
2022-11-20T21:21:09.057Z,4.50
2022-11-20T21:23:36.012Z,4.03
2022-11-20T21:26:06.815Z,4.22
2022-11-20T21:28:34.237Z,4.00
2022-11-20T21:31:08.544Z,6.30
2022-11-20T21:33:39.526Z,5.28
2022-11-20T21:36:06.902Z,5.38
2022-11-20T21:38:33.748Z,5.05
2022-11-20T21:41:00.351Z,6.75
2022-11-20T21:43:26.752Z,6.80
2022-11-20T21:45:53.321Z,4.70
2022-11-20T21:48:19.659Z,4.97
2022-11-20T21:50:46.017Z,5.50
2022-11-20T21:53:12.311Z,4.57
2022-11-20T21:55:38.669Z,5.20
2022-11-20T21:58:04.960Z,6.22
2022-11-20T22:00:31.255Z,6.05
2022-11-20T22:02:57.785Z,7.85
2022-11-20T22:05:24.190Z,5.35
2022-11-20T22:07:50.582Z,5.45
2022-11-20T22:10:18.746Z,5.95
2022-11-20T22:12:45.252Z,7.68
2022-11-20T22:15:11.577Z,9.90
2022-11-20T22:17:56.612Z,5.70
2022-11-20T22:20:22.941Z,6.57
2022-11-20T22:22:49.284Z,6.82
2022-11-20T22:25:15.666Z,7.20
2022-11-20T22:27:41.947Z,4.47
2022-11-20T22:30:08.490Z,6.00
2022-11-20T22:32:34.754Z,6.53
2022-11-20T22:35:01.100Z,6.07
2022-11-20T22:37:27.387Z,5.65
2022-11-20T22:39:53.727Z,5.75
2022-11-20T22:42:20.085Z,5.60
2022-11-20T22:44:46.436Z,9.60
2022-11-20T22:47:12.747Z,3.83
2022-11-20T22:49:39.080Z,4.63
2022-11-20T22:52:05.438Z,6.43
2022-11-20T22:54:31.729Z,6.63
2022-11-20T22:56:58.108Z,4.40
2022-11-20T22:59:24.398Z,8.23
2022-11-20T23:01:50.715Z,9.32
2022-11-20T23:04:16.990Z,5.07
2022-11-20T23:06:43.336Z,4.35
2022-11-20T23:09:09.784Z,2.63
2022-11-20T23:11:36.555Z,3.40
2022-11-20T23:14:07.281Z,5.55
2022-11-20T23:16:34.280Z,4.35
2022-11-20T23:19:05.372Z,5.00
2022-11-20T23:21:32.192Z,8.15
2022-11-20T23:23:59.488Z,3.45
2022-11-20T23:26:31.460Z,5.88
2022-11-20T23:28:58.445Z,5.75
2022-11-20T23:31:25.619Z,8.20
2022-11-20T23:33:52.042Z,1.98
2022-11-20T23:36:18.458Z,6.07
2022-11-20T23:38:44.870Z,7.68
2022-11-20T23:41:11.442Z,5.03
2022-11-20T23:43:37.747Z,6.05
2022-11-20T23:46:04.406Z,9.43
2022-11-20T23:48:31.683Z,9.05
2022-11-20T23:50:58.102Z,6.07
2022-11-20T23:53:24.665Z,6.25
2022-11-20T23:55:51.976Z,4.30
2022-11-20T23:58:18.910Z,6.25
